Terminal Aerodrome Forecast
Issued by NWS Wilmington, OH

Home | Current Version | Previous Version | Text Only | Print | Product List | Glossary On
Versions: 1 2 3 4 5 6 7 8 9 10 11 12 13 14 15 16 17 18 19 20 21 22
000
FTUS41 KILN 301457 AAA
TAFCVG
TAF AMD
KCVG 301457Z 3015/3118 32008KT P6SM FEW040 SCT250
     FM310000 00000KT P6SM SKC
     FM311500 07005KT P6SM FEW050=

USA.gov is the U.S. government's official web portal to all federal, state and local government web resources and services.